Time;durP1;ratioP1;P1;durP2;ratioP2;P2;SDS_P1;SDS_P2;PMS_P1;PMS_P2;Temp;Humidity;BMP_temperature;BMP_pressure;BME280_temperature;BME280_humidity;BME280_pressure;Samples;Min_cycle;Max_cycle;Signal;HPM_P1;HPM_P2
2022/09/17 00:01:52;;;;;;;2.22;1.20;;;21.10;61.70;;;;;;5045129;28;20017;-61
2022/09/17 00:04:17;;;;;;;2.03;1.00;;;21.10;61.70;;;;;;5046330;28;20032;-61
2022/09/17 00:06:43;;;;;;;2.17;1.00;;;21.10;61.70;;;;;;5045359;28;20037;-61
2022/09/17 00:09:09;;;;;;;4.15;0.90;;;21.10;61.70;;;;;;5044793;28;20032;-61
2022/09/17 00:11:36;;;;;;;2.67;1.00;;;21.00;61.70;;;;;;5042792;28;20036;-61
2022/09/17 00:14:02;;;;;;;2.72;1.10;;;21.10;61.70;;;;;;5045159;28;20041;-61
2022/09/17 00:16:37;;;;;;;3.25;1.20;;;21.10;61.80;;;;;;5045218;28;20104;-61
2022/09/17 00:19:03;;;;;;;;;;;21.10;61.90;;;;;;5045175;28;20064;-61
2022/09/17 00:21:29;;;;;;;3.97;1.15;;;21.00;61.80;;;;;;5044234;28;19920;-61
2022/09/17 00:23:56;;;;;;;2.88;0.95;;;21.10;61.90;;;;;;5045113;28;20029;-62
2022/09/17 00:26:22;;;;;;;2.88;0.90;;;21.00;61.90;;;;;;5044423;28;20026;-61
2022/09/17 00:28:51;;;;;;;2.75;0.95;;;21.00;61.80;;;;;;5046108;28;20035;-61
2022/09/17 00:31:17;;;;;;;1.33;0.80;;;21.10;61.80;;;;;;5042511;28;20041;-61
2022/09/17 00:33:42;;;;;;;2.63;1.05;;;21.10;61.90;;;;;;5044141;28;20034;-61
2022/09/17 00:36:08;;;;;;;2.08;0.90;;;21.00;61.90;;;;;;5043234;28;20044;-61
2022/09/17 00:38:34;;;;;;;3.78;1.23;;;21.00;62.00;;;;;;5043875;28;20405;-61
2022/09/17 00:41:00;;;;;;;3.45;1.00;;;21.00;62.00;;;;;;5026666;28;20083;-61
2022/09/17 00:43:42;;;;;;;2.65;1.00;;;21.00;62.00;;;;;;5043918;28;20028;-61
2022/09/17 00:46:32;;;;;;;3.53;1.10;;;21.00;62.00;;;;;;5043523;28;20052;-61
2022/09/17 00:49:12;;;;;;;2.03;1.02;;;21.00;62.00;;;;;;5027488;28;20453;-61
2022/09/17 00:52:14;;;;;;;2.53;0.98;;;21.00;62.00;;;;;;5042466;28;20056;-61
2022/09/17 00:54:48;;;;;;;3.15;1.17;;;21.00;62.00;;;;;;4986466;28;20030;-61
2022/09/17 00:57:14;;;;;;;1.50;0.80;;;21.00;62.00;;;;;;4981608;28;20507;-61
2022/09/17 00:59:40;;;;;;;3.45;0.98;;;20.90;61.90;;;;;;4985360;28;20133;-61
2022/09/17 01:02:05;;;;;;;2.78;0.90;;;21.00;62.00;;;;;;4984853;28;20069;-61
2022/09/17 01:04:31;;;;;;;3.28;1.20;;;20.90;61.90;;;;;;4984103;28;20126;-61
2022/09/17 01:07:01;;;;;;;2.70;1.00;;;21.00;62.00;;;;;;4982761;28;20054;-61
2022/09/17 01:09:53;;;;;;;2.30;0.90;;;21.00;62.00;;;;;;4981014;28;20593;-61
2022/09/17 01:12:46;;;;;;;2.67;1.00;;;20.90;61.90;;;;;;4983004;28;20045;-61
2022/09/17 01:15:35;;;;;;;2.95;0.82;;;20.90;61.90;;;;;;4984512;28;20118;-61
2022/09/17 01:18:29;;;;;;;1.45;0.90;;;20.90;61.90;;;;;;4985165;28;20535;-61
2022/09/17 01:21:12;;;;;;;2.25;0.90;;;20.90;62.00;;;;;;4976386;28;20057;-61
2022/09/17 01:23:41;;;;;;;4.05;1.08;;;20.90;61.90;;;;;;4981387;28;20035;-61
2022/09/17 01:26:25;;;;;;;2.03;0.77;;;20.90;61.90;;;;;;4985452;28;20466;-61
2022/09/17 01:29:05;;;;;;;2.97;0.93;;;20.90;62.00;;;;;;5003937;28;20037;-61
2022/09/17 01:31:47;;;;;;;2.60;0.95;;;20.90;62.00;;;;;;5022264;28;20518;-61
2022/09/17 01:34:30;;;;;;;2.53;0.88;;;20.90;62.00;;;;;;5021081;28;20088;-61
2022/09/17 01:37:02;;;;;;;1.88;0.70;;;20.90;62.10;;;;;;5024093;28;20060;-61
2022/09/17 01:39:50;;;;;;;2.45;0.90;;;20.90;62.10;;;;;;5022316;28;20041;-62
2022/09/17 01:42:30;;;;;;;2.95;0.80;;;20.90;62.10;;;;;;5024361;28;20108;-61
2022/09/17 01:45:03;;;;;;;2.08;1.00;;;20.90;62.20;;;;;;5024031;28;20037;-61
2022/09/17 01:47:31;;;;;;;2.67;1.00;;;20.90;62.20;;;;;;5024641;28;20029;-61
2022/09/17 01:50:00;;;;;;;2.17;0.93;;;20.80;62.20;;;;;;5019622;28;20486;-61
2022/09/17 01:52:26;;;;;;;2.55;0.85;;;20.90;62.30;;;;;;5007235;28;20032;-61
2022/09/17 01:54:53;;;;;;;1.58;0.85;;;20.90;62.30;;;;;;5023309;28;20033;-61
2022/09/17 01:57:25;;;;;;;3.45;1.10;;;20.90;62.30;;;;;;5020857;28;20032;-61
2022/09/17 02:00:03;;;;;;;2.45;0.90;;;20.80;62.30;;;;;;5004713;28;20425;-61
2022/09/17 02:02:39;;;;;;;3.00;1.10;;;20.80;62.30;;;;;;5021104;28;20022;-62
2022/09/17 02:05:06;;;;;;;1.60;0.90;;;20.80;62.30;;;;;;5008277;28;20061;-61
2022/09/17 02:07:32;;;;;;;1.70;0.90;;;20.80;62.40;;;;;;5021621;28;20426;-61
2022/09/17 02:10:02;;;;;;;2.15;0.88;;;20.80;62.30;;;;;;5021394;28;20032;-61
2022/09/17 02:12:32;;;;;;;2.15;1.00;;;20.80;62.30;;;;;;5006096;28;20021;-61
2022/09/17 02:14:59;;;;;;;1.73;0.70;;;20.80;62.30;;;;;;5022160;28;20025;-61
2022/09/17 02:17:31;;;;;;;2.55;0.90;;;20.80;62.40;;;;;;5006553;28;20033;-61
2022/09/17 02:19:56;;;;;;;2.20;1.00;;;20.80;62.30;;;;;;5021289;28;20038;-61
2022/09/17 02:22:29;;;;;;;2.15;0.95;;;20.80;62.40;;;;;;5022166;28;20035;-61
2022/09/17 02:24:54;;;;;;;1.55;0.77;;;20.80;62.40;;;;;;5006698;28;20029;-61
2022/09/17 02:27:41;;;;;;;2.97;1.05;;;20.80;62.40;;;;;;5022232;28;20526;-61
2022/09/17 02:30:07;;;;;;;3.10;1.00;;;20.80;62.50;;;;;;5022873;28;20029;-61
2022/09/17 02:32:33;;;;;;;1.42;0.70;;;20.70;62.40;;;;;;5019988;28;20026;-61
2022/09/17 02:34:59;;;;;;;2.05;0.82;;;20.70;62.40;;;;;;5020526;28;20021;-61
2022/09/17 02:37:26;;;;;;;1.65;0.63;;;20.70;62.50;;;;;;5021573;28;20521;-61
2022/09/17 02:39:52;;;;;;;2.53;0.80;;;20.70;62.40;;;;;;5017851;28;20048;-61
2022/09/17 02:42:56;;;;;;;1.40;0.70;;;20.70;62.50;;;;;;5021120;28;20025;-61
2022/09/17 02:45:33;;;;;;;2.03;0.98;;;20.70;62.50;;;;;;4962478;28;20127;-61
2022/09/17 02:48:01;;;;;;;3.10;0.93;;;20.70;62.50;;;;;;4963998;28;20043;-61
2022/09/17 02:50:46;;;;;;;1.40;0.73;;;20.70;62.50;;;;;;4961974;28;20219;-61
2022/09/17 02:54:09;;;;;;;2.05;0.70;;;20.70;62.60;;;;;;4947549;28;20043;-61
2022/09/17 02:56:37;;;;;;;3.33;1.10;;;20.70;62.50;;;;;;4870376;29;20037;-61
2022/09/17 02:59:23;;;;;;;1.92;0.80;;;20.70;62.60;;;;;;4870762;29;20041;-61
2022/09/17 03:02:06;;;;;;;2.67;0.80;;;20.70;62.60;;;;;;4867181;29;20061;-61
2022/09/17 03:04:31;;;;;;;2.75;0.90;;;20.70;62.50;;;;;;4856621;29;20218;-61
2022/09/17 03:07:01;;;;;;;1.85;1.00;;;20.60;63.50;;;;;;4869764;29;20048;-61
2022/09/17 03:09:26;;;;;;;2.42;1.00;;;20.60;62.40;;;;;;4855598;29;20131;-61
2022/09/17 03:11:52;;;;;;;1.67;0.70;;;20.60;62.60;;;;;;4870534;29;20429;-61
2022/09/17 03:14:19;;;;;;;1.10;0.70;;;20.60;62.60;;;;;;4870578;29;20698;-61
2022/09/17 03:16:45;;;;;;;3.35;0.90;;;20.60;62.50;;;;;;4869359;29;20502;-61
2022/09/17 03:19:11;;;;;;;1.65;0.70;;;20.60;63.50;;;;;;4902412;28;20083;-61
2022/09/17 03:21:36;;;;;;;1.95;0.90;;;20.60;62.50;;;;;;4944861;28;20035;-61
2022/09/17 03:24:02;;;;;;;1.95;0.70;;;20.60;62.50;;;;;;4944431;28;20115;-61
2022/09/17 03:26:28;;;;;;;1.15;0.70;;;20.60;62.40;;;;;;4965282;28;20065;-62
2022/09/17 03:28:53;;;;;;;1.90;0.80;;;20.50;62.40;;;;;;5022039;28;20099;-61
2022/09/17 03:31:19;;;;;;;1.30;0.70;;;20.60;62.40;;;;;;5023092;28;20387;-61
2022/09/17 03:33:45;;;;;;;1.83;0.70;;;20.60;62.40;;;;;;5023010;28;20025;-61
2022/09/17 03:36:10;;;;;;;2.00;0.90;;;20.60;62.40;;;;;;5019272;28;20030;-62
2022/09/17 03:38:37;;;;;;;1.70;0.77;;;20.60;62.40;;;;;;5022934;28;20045;-61
2022/09/17 03:41:05;;;;;;;1.38;0.70;;;20.60;62.40;;;;;;5020303;28;20021;-61
2022/09/17 03:43:31;;;;;;;2.88;0.73;;;20.50;62.40;;;;;;5024846;28;20037;-61
2022/09/17 03:45:57;;;;;;;2.08;0.93;;;20.50;62.30;;;;;;5022822;28;20091;-61
2022/09/17 03:48:22;;;;;;;2.58;0.90;;;20.50;62.40;;;;;;5026399;28;20040;-61
2022/09/17 03:50:48;;;;;;;1.80;0.88;;;20.50;62.30;;;;;;5024033;28;20022;-61
2022/09/17 03:53:14;;;;;;;1.55;0.73;;;20.50;62.30;;;;;;5026340;28;20049;-61
2022/09/17 03:55:40;;;;;;;2.15;1.02;;;20.50;62.40;;;;;;5026464;28;20021;-61
2022/09/17 03:58:06;;;;;;;1.70;0.73;;;20.50;62.30;;;;;;5023898;28;20409;-61
2022/09/17 04:00:31;;;;;;;2.35;0.98;;;20.50;62.30;;;;;;5023605;28;20025;-61
2022/09/17 04:02:57;;;;;;;2.15;0.90;;;20.50;62.30;;;;;;5021972;28;20029;-61
2022/09/17 04:05:23;;;;;;;1.65;0.85;;;20.50;62.30;;;;;;5025749;28;20028;-61
2022/09/17 04:07:48;;;;;;;1.80;0.90;;;20.50;62.30;;;;;;5021392;28;20021;-61
2022/09/17 04:10:14;;;;;;;1.20;0.80;;;20.50;62.30;;;;;;5027262;28;20029;-61
2022/09/17 04:12:40;;;;;;;2.33;0.80;;;20.40;62.20;;;;;;5023112;28;20049;-61
2022/09/17 04:15:06;;;;;;;1.20;0.70;;;20.40;62.30;;;;;;5024353;28;20092;-61
2022/09/17 04:17:32;;;;;;;1.77;0.80;;;20.40;62.20;;;;;;5025450;28;20029;-61
2022/09/17 04:19:57;;;;;;;2.05;0.70;;;20.40;62.20;;;;;;5033915;28;20456;-61
2022/09/17 04:22:24;;;;;;;2.22;0.90;;;20.40;63.30;;;;;;5044923;28;20025;-61
2022/09/17 04:24:49;;;;;;;2.20;0.70;;;20.40;62.20;;;;;;5042172;28;20067;-61
2022/09/17 04:27:15;;;;;;;1.10;0.60;;;20.40;62.20;;;;;;5044030;28;20063;-61
2022/09/17 04:29:41;;;;;;;2.17;0.88;;;20.40;62.10;;;;;;5042711;28;20044;-61
2022/09/17 04:32:06;;;;;;;1.65;0.68;;;20.40;62.20;;;;;;5045820;28;20052;-61
2022/09/17 04:34:32;;;;;;;0.82;0.70;;;20.40;62.20;;;;;;5044673;28;20025;-61
2022/09/17 04:36:58;;;;;;;2.13;0.90;;;20.40;62.10;;;;;;5044276;28;20076;-61
2022/09/17 04:39:23;;;;;;;2.40;0.82;;;20.40;62.10;;;;;;5041841;28;20095;-61
2022/09/17 04:41:49;;;;;;;2.53;0.70;;;20.40;62.20;;;;;;5045840;28;20037;-61
2022/09/17 04:44:14;;;;;;;2.70;0.80;;;20.40;62.10;;;;;;5044951;28;20086;-61
2022/09/17 04:46:40;;;;;;;2.63;1.00;;;20.40;62.10;;;;;;5047014;28;20029;-61
2022/09/17 04:49:07;;;;;;;1.52;0.63;;;20.40;62.10;;;;;;5043593;28;20428;-61
2022/09/17 04:51:33;;;;;;;2.30;0.80;;;20.40;62.10;;;;;;5044468;28;20490;-61
2022/09/17 04:53:58;;;;;;;1.80;0.75;;;20.30;62.00;;;;;;5043827;28;20031;-61
2022/09/17 04:56:24;;;;;;;1.55;0.75;;;20.30;62.00;;;;;;5043209;28;20029;-61
2022/09/17 04:58:50;;;;;;;2.85;0.82;;;20.30;62.10;;;;;;5043160;28;20049;-61
2022/09/17 05:01:17;;;;;;;2.05;0.80;;;20.30;62.10;;;;;;5044091;28;20064;-61
2022/09/17 05:03:43;;;;;;;1.50;0.55;;;20.30;62.00;;;;;;5042501;28;20459;-61
2022/09/17 05:06:09;;;;;;;1.02;0.70;;;20.30;62.10;;;;;;5041326;28;20397;-61
2022/09/17 05:08:35;;;;;;;1.30;0.70;;;20.30;62.10;;;;;;5043494;28;20058;-61
2022/09/17 05:11:01;;;;;;;1.30;0.60;;;20.30;62.00;;;;;;5045137;28;20021;-61
2022/09/17 05:13:27;;;;;;;1.92;0.60;;;20.30;62.10;;;;;;5041285;28;20502;-61
2022/09/17 05:15:55;;;;;;;2.47;0.80;;;20.20;62.00;;;;;;5042706;28;20031;-61
2022/09/17 05:18:21;;;;;;;2.00;0.55;;;20.20;62.00;;;;;;5043254;28;20040;-61
2022/09/17 05:20:46;;;;;;;2.20;0.80;;;20.30;62.00;;;;;;5042893;28;20099;-61
2022/09/17 05:23:12;;;;;;;1.73;0.65;;;20.20;62.00;;;;;;5045534;28;20115;-62
2022/09/17 05:25:38;;;;;;;2.50;0.80;;;20.20;62.00;;;;;;5043351;28;20033;-61
2022/09/17 05:28:04;;;;;;;1.52;0.80;;;20.20;62.00;;;;;;5039185;28;20037;-62
2022/09/17 05:30:30;;;;;;;1.75;0.75;;;20.20;61.90;;;;;;5042925;28;20553;-61
2022/09/17 05:33:00;;;;;;;1.75;0.70;;;20.20;62.00;;;;;;5042843;28;20072;-61
2022/09/17 05:35:25;;;;;;;1.77;0.73;;;20.20;61.90;;;;;;5042992;28;20115;-61
2022/09/17 05:37:55;;;;;;;1.75;0.80;;;20.20;63.00;;;;;;5041245;28;20108;-61
2022/09/17 05:40:20;;;;;;;1.35;0.65;;;20.20;61.90;;;;;;5028938;28;20067;-61
2022/09/17 05:42:46;;;;;;;1.77;0.70;;;20.20;61.90;;;;;;5042018;28;20048;-61
2022/09/17 05:45:11;;;;;;;1.65;0.88;;;20.20;61.90;;;;;;5042295;28;20060;-61
2022/09/17 05:47:37;;;;;;;1.17;0.68;;;20.20;61.80;;;;;;5043428;28;20021;-61
2022/09/17 05:50:03;;;;;;;2.28;0.80;;;20.20;62.40;;;;;;5043882;28;20562;-61
2022/09/17 05:52:29;;;;;;;1.38;0.60;;;20.10;61.80;;;;;;5044183;28;20025;-61
2022/09/17 05:54:55;;;;;;;1.42;0.60;;;20.20;61.80;;;;;;5042999;28;20108;-61
2022/09/17 05:57:21;;;;;;;2.78;0.80;;;20.10;61.80;;;;;;5043359;28;20515;-61
2022/09/17 05:59:46;;;;;;;1.08;0.60;;;20.10;61.80;;;;;;5042357;28;20037;-61
2022/09/17 06:02:15;;;;;;;1.13;0.70;;;20.10;61.80;;;;;;5042385;28;20036;-61
2022/09/17 06:04:40;;;;;;;1.23;0.75;;;20.10;62.90;;;;;;5044529;28;20079;-61
2022/09/17 06:07:07;;;;;;;0.88;0.70;;;20.10;61.70;;;;;;5044104;28;20052;-61
2022/09/17 06:09:36;;;;;;;2.25;0.75;;;20.10;61.80;;;;;;5041858;28;20013;-61
2022/09/17 06:12:03;;;;;;;1.23;0.70;;;20.10;61.70;;;;;;5042301;28;20025;-61
2022/09/17 06:14:29;;;;;;;1.25;0.70;;;20.10;61.80;;;;;;5044324;28;20033;-61
2022/09/17 06:16:55;;;;;;;1.27;0.70;;;20.10;61.80;;;;;;5043700;28;20028;-61
2022/09/17 06:19:21;;;;;;;2.60;1.05;;;20.10;61.70;;;;;;5040893;28;20421;-61
2022/09/17 06:21:49;;;;;;;2.15;0.82;;;20.00;61.80;;;;;;5042062;28;20386;-61
2022/09/17 06:24:15;;;;;;;1.45;0.70;;;20.00;61.70;;;;;;5040152;28;20037;-61
2022/09/17 06:26:41;;;;;;;1.15;0.70;;;20.00;61.60;;;;;;5041918;28;20753;-61
2022/09/17 06:29:06;;;;;;;1.40;0.50;;;20.00;61.70;;;;;;5042113;28;20056;-61
2022/09/17 06:31:32;;;;;;;0.80;0.57;;;20.00;61.70;;;;;;5038240;28;20082;-61
2022/09/17 06:33:57;;;;;;;1.27;0.68;;;20.00;61.70;;;;;;5046073;28;20025;-61
2022/09/17 06:36:23;;;;;;;1.42;0.63;;;20.00;61.70;;;;;;5041585;28;20033;-61
2022/09/17 06:38:49;;;;;;;2.30;0.90;;;20.00;61.70;;;;;;5044388;28;20646;-61
2022/09/17 06:41:15;;;;;;;1.63;0.80;;;20.00;61.70;;;;;;5040322;28;20398;-61
2022/09/17 06:43:41;;;;;;;2.22;0.80;;;20.00;61.60;;;;;;5041572;28;20037;-61
2022/09/17 06:46:09;;;;;;;2.20;0.70;;;20.00;61.70;;;;;;5041425;28;20047;-61
2022/09/17 06:48:35;;;;;;;1.25;0.70;;;20.00;61.80;;;;;;5022650;28;20052;-61
2022/09/17 06:51:02;;;;;;;1.45;0.73;;;19.90;61.70;;;;;;5042517;28;20102;-61
2022/09/17 06:53:28;;;;;;;1.30;0.60;;;20.00;61.70;;;;;;5042064;28;20025;-61
2022/09/17 06:55:56;;;;;;;1.33;0.80;;;19.90;61.60;;;;;;5039730;28;20562;-61
2022/09/17 06:58:22;;;;;;;0.98;0.55;;;19.90;61.60;;;;;;5041268;28;20037;-62
2022/09/17 07:00:48;;;;;;;1.85;0.75;;;20.00;61.70;;;;;;5040595;28;20030;-61
2022/09/17 07:03:14;;;;;;;2.35;1.08;;;19.90;61.70;;;;;;5025700;28;20405;-61
2022/09/17 07:05:42;;;;;;;0.77;0.50;;;19.90;61.70;;;;;;5035233;28;20044;-61
2022/09/17 07:08:09;;;;;;;2.35;0.77;;;19.90;61.70;;;;;;5041665;28;20108;-61
2022/09/17 07:10:36;;;;;;;0.75;0.70;;;19.90;61.70;;;;;;5042355;28;20120;-61
2022/09/17 07:13:03;;;;;;;2.08;0.77;;;19.90;61.70;;;;;;5042052;28;20025;-61
2022/09/17 07:15:28;;;;;;;2.28;0.73;;;19.90;61.70;;;;;;5039126;28;20056;-61
2022/09/17 07:17:54;;;;;;;1.73;0.80;;;19.90;61.80;;;;;;5041705;28;20489;-61
2022/09/17 07:20:20;;;;;;;1.17;0.70;;;19.90;61.80;;;;;;5045978;28;20045;-61
2022/09/17 07:22:53;;;;;;;1.20;0.73;;;19.80;61.70;;;;;;5043126;28;20448;-61
2022/09/17 07:25:23;;;;;;;1.13;0.60;;;19.90;61.80;;;;;;5030591;28;20036;-61
2022/09/17 07:27:50;;;;;;;1.38;0.80;;;19.90;61.80;;;;;;5026100;28;20029;-62
2022/09/17 07:30:16;;;;;;;3.35;1.10;;;19.90;61.80;;;;;;5029042;28;20732;-61
2022/09/17 07:32:42;;;;;;;3.10;1.13;;;19.90;61.10;;;;;;5044128;28;20035;-62
2022/09/17 07:35:08;;;;;;;4.80;1.15;;;19.80;58.80;;;;;;5039479;28;20036;-62
2022/09/17 07:37:33;;;;;;;4.68;1.15;;;19.80;57.00;;;;;;5024093;28;20071;-62
2022/09/17 07:39:59;;;;;;;3.55;1.10;;;19.80;56.20;;;;;;5044028;28;20055;-62
2022/09/17 07:42:26;;;;;;;6.18;1.40;;;19.70;56.10;;;;;;5044422;28;20072;-61
2022/09/17 07:44:52;;;;;;;5.05;1.20;;;19.80;56.40;;;;;;5046007;28;20037;-61
2022/09/17 07:47:18;;;;;;;6.00;1.38;;;19.80;56.20;;;;;;5044409;28;20113;-61
2022/09/17 07:49:44;;;;;;;4.60;1.23;;;19.70;56.50;;;;;;5026636;28;20395;-61
2022/09/17 07:52:10;;;;;;;4.07;1.25;;;19.70;56.00;;;;;;5042534;28;20031;-61
2022/09/17 07:54:36;;;;;;;5.82;1.30;;;19.70;55.60;;;;;;5047020;28;20094;-61
2022/09/17 07:57:03;;;;;;;5.65;1.45;;;19.70;55.60;;;;;;5042479;28;20104;-61
2022/09/17 07:59:28;;;;;;;4.15;1.30;;;19.70;56.40;;;;;;5047100;28;20037;-61
2022/09/17 08:01:54;;;;;;;7.72;1.40;;;19.70;55.90;;;;;;5043821;28;20029;-61
2022/09/17 08:04:20;;;;;;;3.47;1.35;;;19.70;56.80;;;;;;5027027;28;20029;-61
2022/09/17 08:06:49;;;;;;;3.20;1.10;;;19.70;57.00;;;;;;5043183;28;20033;-61
2022/09/17 08:09:17;;;;;;;4.07;1.05;;;19.70;56.90;;;;;;5043914;28;20051;-61
2022/09/17 08:11:43;;;;;;;5.20;1.20;;;19.70;56.60;;;;;;5044491;28;20032;-61
2022/09/17 08:14:13;;;;;;;3.78;1.10;;;19.70;56.30;;;;;;5044671;28;20447;-61
2022/09/17 08:16:39;;;;;;;4.32;1.05;;;19.70;56.20;;;;;;5042787;28;20021;-61
2022/09/17 08:19:05;;;;;;;4.30;1.27;;;19.70;56.10;;;;;;5042645;28;20041;-61
2022/09/17 08:21:34;;;;;;;1.75;0.82;;;19.70;56.20;;;;;;5040295;28;20033;-61
2022/09/17 08:24:01;;;;;;;4.40;0.90;;;19.80;56.20;;;;;;5023851;28;20540;-61
2022/09/17 08:26:26;;;;;;;4.97;1.10;;;19.70;56.00;;;;;;5041822;28;20033;-61
2022/09/17 08:28:54;;;;;;;4.72;1.27;;;19.70;54.80;;;;;;5042984;28;20055;-61
2022/09/17 08:31:20;;;;;;;4.18;0.90;;;19.70;55.60;;;;;;5028535;28;20053;-60
2022/09/17 08:33:47;;;;;;;4.05;0.77;;;19.70;54.90;;;;;;5030639;28;20440;-60
2022/09/17 08:36:15;;;;;;;3.88;0.93;;;19.80;54.80;;;;;;5045979;28;20060;-59
2022/09/17 08:38:41;;;;;;;3.50;0.90;;;19.80;55.70;;;;;;5039336;28;20112;-59
2022/09/17 08:41:13;;;;;;;3.45;0.80;;;19.70;55.40;;;;;;5045194;28;20117;-59
2022/09/17 08:43:58;;;;;;;2.78;0.90;;;19.70;54.50;;;;;;5044623;28;20021;-59
2022/09/17 08:46:24;;;;;;;6.28;0.95;;;19.70;54.50;;;;;;5044457;28;20041;-59
2022/09/17 08:48:56;;;;;;;4.60;1.02;;;19.80;55.10;;;;;;5028302;28;20028;-59
2022/09/17 08:51:38;;;;;;;5.55;0.80;;;19.80;54.90;;;;;;5044524;28;20493;-61
2022/09/17 08:54:19;;;;;;;2.25;0.70;;;19.80;55.70;;;;;;5031109;28;20047;-61
2022/09/17 08:56:45;;;;;;;2.63;0.60;;;19.80;55.50;;;;;;5040992;28;20024;-62
2022/09/17 08:59:14;;;;;;;3.90;0.93;;;19.80;55.30;;;;;;5026137;28;20036;-61
2022/09/17 09:01:49;;;;;;;7.75;1.02;;;19.70;55.50;;;;;;5025138;28;20033;-61
2022/09/17 09:04:48;;;;;;;4.10;0.85;;;19.70;54.50;;;;;;5042048;28;20036;-61
2022/09/17 09:07:20;;;;;;;2.92;0.75;;;19.70;55.60;;;;;;4965821;28;20081;-61
2022/09/17 09:09:49;;;;;;;3.90;0.95;;;19.70;53.50;;;;;;4964374;28;20039;-61
2022/09/17 09:12:25;;;;;;;3.60;0.80;;;19.70;54.30;;;;;;4966394;28;20070;-62
2022/09/17 09:15:00;;;;;;;6.10;0.90;;;19.70;54.70;;;;;;4966087;28;20089;-62
2022/09/17 09:17:28;;;;;;;6.68;1.10;;;19.70;54.20;;;;;;4964115;28;20066;-62
2022/09/17 09:19:55;;;;;;;4.40;0.70;;;19.70;53.70;;;;;;4967649;28;20580;-61
2022/09/17 09:22:42;;;;;;;3.80;0.80;;;19.80;54.30;;;;;;4964581;28;20034;-61
2022/09/17 09:25:22;;;;;;;4.90;0.77;;;19.70;54.20;;;;;;4969407;28;20042;-61
2022/09/17 09:28:12;;;;;;;5.07;0.90;;;19.70;54.40;;;;;;4966719;28;20035;-61
2022/09/17 09:31:05;;;;;;;4.13;0.70;;;19.70;53.10;;;;;;4964762;28;20526;-61
2022/09/17 09:33:34;;;;;;;3.45;0.65;;;19.80;54.70;;;;;;4966648;28;20042;-61
2022/09/17 09:36:00;;;;;;;2.50;0.68;;;19.80;54.80;;;;;;4967269;28;20511;-61
2022/09/17 09:38:33;;;;;;;2.03;0.73;;;19.80;54.60;;;;;;4959805;28;20098;-61
2022/09/17 09:41:02;;;;;;;2.63;0.82;;;19.80;54.50;;;;;;4964299;28;20038;-62
2022/09/17 09:43:38;;;;;;;2.17;0.80;;;19.80;54.30;;;;;;4974759;28;20039;-61
2022/09/17 09:46:21;;;;;;;2.53;0.70;;;19.80;54.30;;;;;;5004581;28;20515;-61
2022/09/17 09:49:10;;;;;;;2.50;0.70;;;19.80;53.20;;;;;;5024403;28;20032;-59
2022/09/17 09:52:02;;;;;;;2.67;0.70;;;19.80;54.10;;;;;;5032055;28;20049;-59
2022/09/17 09:54:30;;;;;;;5.63;0.80;;;19.80;54.50;;;;;;5023253;28;20409;-60
2022/09/17 09:56:58;;;;;;;5.88;1.02;;;19.90;54.50;;;;;;5043489;28;20033;-59
2022/09/17 09:59:25;;;;;;;7.07;1.10;;;20.00;55.20;;;;;;5021496;28;20123;-60
2022/09/17 10:01:51;;;;;;;3.90;1.08;;;20.00;56.00;;;;;;5038257;28;20060;-60
2022/09/17 10:04:16;;;;;;;5.72;1.20;;;20.10;56.40;;;;;;5041887;28;20052;-60
2022/09/17 10:06:42;;;;;;;7.05;0.98;;;20.10;56.50;;;;;;5037622;28;20091;-60
2022/09/17 10:09:08;;;;;;;7.93;0.95;;;20.20;56.70;;;;;;5041108;28;20021;-60
2022/09/17 10:11:34;;;;;;;7.63;1.10;;;20.20;56.60;;;;;;5042727;28;20496;-60
2022/09/17 10:14:24;;;;;;;7.95;1.08;;;20.20;56.50;;;;;;5043627;28;20061;-61
2022/09/17 10:17:20;;;;;;;4.03;1.00;;;20.20;56.50;;;;;;5042087;28;20052;-61
2022/09/17 10:20:09;;;;;;;7.68;1.30;;;20.30;56.40;;;;;;5012564;28;20124;-61
2022/09/17 10:22:35;;;;;;;7.72;1.05;;;20.30;56.60;;;;;;5040652;28;20036;-61
2022/09/17 10:25:02;;;;;;;12.00;1.13;;;20.30;56.60;;;;;;5025902;28;20074;-61
2022/09/17 10:27:28;;;;;;;4.68;1.10;;;20.40;56.80;;;;;;5021304;28;20025;-61
2022/09/17 10:30:14;;;;;;;6.18;0.98;;;20.40;57.70;;;;;;5027648;28;20056;-61
2022/09/17 10:32:40;;;;;;;5.43;1.02;;;20.40;56.60;;;;;;5009784;28;20060;-61
2022/09/17 10:35:14;;;;;;;7.78;1.25;;;20.40;56.40;;;;;;5025279;28;20036;-61
2022/09/17 10:37:41;;;;;;;;;;;20.50;56.40;;;;;;5040147;28;20480;-61
2022/09/17 10:40:19;;;;;;;9.73;1.40;;;20.50;56.30;;;;;;5042910;28;20058;-61
2022/09/17 10:42:45;;;;;;;3.95;0.90;;;20.50;56.80;;;;;;5040724;28;20025;-61
2022/09/17 10:45:28;;;;;;;4.32;1.00;;;20.60;57.00;;;;;;5041447;28;20076;-61
2022/09/17 10:47:54;;;;;;;3.67;0.80;;;20.50;56.60;;;;;;5040796;28;20698;-61
2022/09/17 10:50:23;;;;;;;7.53;1.08;;;20.60;56.50;;;;;;5046070;28;20036;-61
2022/09/17 10:52:51;;;;;;;3.03;1.05;;;20.60;56.40;;;;;;5025497;28;20112;-61
2022/09/17 10:55:29;;;;;;;5.75;0.90;;;20.60;56.20;;;;;;5032448;28;20026;-61
2022/09/17 10:58:07;;;;;;;4.95;1.20;;;20.60;56.10;;;;;;5044891;28;20459;-61
2022/09/17 11:01:03;;;;;;;2.15;0.77;;;20.50;55.40;;;;;;5042421;28;20045;-60
2022/09/17 11:03:52;;;;;;;2.28;0.68;;;20.50;55.60;;;;;;5046041;28;20599;-61
2022/09/17 11:06:44;;;;;;;3.75;1.00;;;20.50;55.40;;;;;;5030111;28;20028;-61
2022/09/17 11:09:13;;;;;;;3.45;0.90;;;20.50;55.20;;;;;;5029333;28;20033;-61
2022/09/17 11:12:00;;;;;;;4.32;1.00;;;20.50;55.10;;;;;;5048747;28;20489;-61
2022/09/17 11:14:39;;;;;;;3.40;0.70;;;20.60;55.00;;;;;;5047524;28;20033;-61
2022/09/17 11:17:08;;;;;;;3.00;0.85;;;20.60;55.00;;;;;;5044866;28;20087;-61
2022/09/17 11:20:00;;;;;;;3.17;0.60;;;20.60;54.60;;;;;;5045326;28;20057;-61
2022/09/17 11:22:54;;;;;;;1.83;0.60;;;20.60;54.50;;;;;;5043513;28;20040;-61
2022/09/17 11:25:38;;;;;;;4.25;0.80;;;20.60;54.40;;;;;;5029587;28;20035;-61
2022/09/17 11:28:16;;;;;;;2.05;0.90;;;20.60;54.20;;;;;;5048542;28;20029;-61
2022/09/17 11:31:00;;;;;;;2.83;0.88;;;20.60;54.10;;;;;;5044334;28;20481;-61
2022/09/17 11:34:10;;;;;;;3.55;0.65;;;20.70;53.90;;;;;;5042281;28;20729;-61
2022/09/17 11:36:47;;;;;;;1.55;0.88;;;20.70;54.00;;;;;;4983829;28;20034;-61
2022/09/17 11:39:19;;;;;;;2.92;0.77;;;20.70;53.90;;;;;;4969042;28;20046;-61
2022/09/17 11:41:45;;;;;;;2.70;0.75;;;20.70;53.50;;;;;;4980061;28;20027;-61
2022/09/17 11:44:27;;;;;;;4.78;0.88;;;20.80;53.80;;;;;;4977484;28;20046;-61
2022/09/17 11:47:09;;;;;;;4.07;0.90;;;20.80;53.60;;;;;;4967294;28;20034;-61
2022/09/17 11:49:34;;;;;;;3.15;0.80;;;20.90;53.90;;;;;;4969687;28;20113;-60
2022/09/17 11:52:23;;;;;;;4.80;0.80;;;20.90;53.90;;;;;;4974755;28;20130;-60
2022/09/17 11:55:22;;;;;;;6.00;0.85;;;21.00;53.90;;;;;;4970615;28;20574;-60
2022/09/17 11:57:49;;;;;;;8.05;1.30;;;21.00;53.80;;;;;;4968365;28;20043;-60
2022/09/17 12:00:19;;;;;;;4.35;0.85;;;21.10;54.00;;;;;;4992061;28;20050;-60
2022/09/17 12:02:52;;;;;;;5.03;0.85;;;21.20;54.10;;;;;;4981963;28;20042;-61
2022/09/17 12:05:30;;;;;;;2.77;0.73;;;21.20;54.10;;;;;;4988602;28;20031;-61
2022/09/17 12:08:01;;;;;;;3.42;0.80;;;21.30;54.10;;;;;;4985794;28;20749;-61
2022/09/17 12:10:45;;;;;;;2.80;0.75;;;21.40;54.20;;;;;;4970936;28;20537;-61
2022/09/17 12:13:33;;;;;;;3.53;0.80;;;21.40;54.20;;;;;;4963966;28;20526;-61
2022/09/17 12:16:38;;;;;;;3.83;0.85;;;21.40;54.20;;;;;;4944796;28;20062;-61
2022/09/17 12:19:18;;;;;;;2.28;0.70;;;21.50;54.20;;;;;;4909287;29;20048;-61
2022/09/17 12:21:57;;;;;;;5.28;0.98;;;21.50;54.00;;;;;;4905595;29;20031;-61
2022/09/17 12:24:23;;;;;;;5.78;1.02;;;21.60;54.00;;;;;;4894754;29;20044;-61
2022/09/17 12:26:54;;;;;;;5.60;0.90;;;21.60;54.00;;;;;;4910438;29;20433;-61
2022/09/17 12:29:54;;;;;;;2.83;0.90;;;21.60;53.90;;;;;;4909768;29;20062;-61
2022/09/17 12:32:38;;;;;;;3.92;1.00;;;21.70;53.70;;;;;;4912180;28;20038;-61
2022/09/17 12:35:28;;;;;;;2.60;0.70;;;21.70;53.60;;;;;;4965007;28;20093;-61
2022/09/17 12:38:05;;;;;;;6.03;0.93;;;21.80;53.50;;;;;;4966291;28;20034;-61
2022/09/17 12:41:07;;;;;;;5.30;0.93;;;21.80;53.40;;;;;;4948541;28;20128;-61
2022/09/17 12:44:00;;;;;;;4.13;0.70;;;21.90;53.20;;;;;;4966785;28;20051;-61
2022/09/17 12:47:03;;;;;;;2.60;0.70;;;21.90;53.00;;;;;;4966650;28;20027;-61
2022/09/17 12:50:06;;;;;;;3.58;0.93;;;21.90;53.00;;;;;;4964004;28;20130;-61
2022/09/17 12:52:44;;;;;;;3.25;0.60;;;22.00;52.80;;;;;;4962741;28;20038;-61
2022/09/17 12:55:36;;;;;;;2.08;0.63;;;22.00;52.80;;;;;;4982800;28;20039;-61
2022/09/17 12:58:23;;;;;;;2.03;0.60;;;22.00;52.60;;;;;;5033441;28;20039;-61
2022/09/17 13:01:17;;;;;;;5.38;0.80;;;22.10;52.50;;;;;;5042298;28;20107;-61
2022/09/17 13:03:52;;;;;;;2.95;0.80;;;22.10;52.50;;;;;;5026861;28;20029;-61
2022/09/17 13:06:41;;;;;;;3.25;0.90;;;22.10;52.30;;;;;;5036087;28;20056;-61
2022/09/17 13:09:25;;;;;;;1.60;0.65;;;22.10;52.10;;;;;;5044572;28;20021;-61
2022/09/17 13:11:51;;;;;;;1.60;0.60;;;22.20;52.00;;;;;;5045214;28;20036;-61
2022/09/17 13:14:32;;;;;;;1.70;0.70;;;22.20;51.80;;;;;;5042610;28;20025;-61